createdAt,value
2018-12-11T00:00:15.407Z,1010.10
2018-12-11T00:01:15.397Z,1010.10
2018-12-11T00:02:15.382Z,1010.15
2018-12-11T00:03:15.372Z,1010.10
2018-12-11T00:04:15.377Z,1010.11
2018-12-11T00:05:15.348Z,1010.13
2018-12-11T00:06:15.342Z,1010.11
2018-12-11T00:07:15.326Z,1010.14
2018-12-11T00:08:15.315Z,1010.10
2018-12-11T00:09:15.321Z,1010.10
2018-12-11T00:10:15.296Z,1010.07
2018-12-11T00:11:15.281Z,1010.09
2018-12-11T00:12:15.268Z,1010.07
2018-12-11T00:13:15.255Z,1009.98
2018-12-11T00:14:15.267Z,1009.92
2018-12-11T00:15:15.243Z,1009.98
2018-12-11T00:16:15.220Z,1010.04
2018-12-11T00:17:15.216Z,1009.98
2018-12-11T00:18:15.197Z,1010.01
2018-12-11T00:19:15.211Z,1009.96
2018-12-11T00:20:15.174Z,1009.96
2018-12-11T00:21:15.170Z,1009.96
2018-12-11T00:22:15.167Z,1009.97
2018-12-11T00:23:15.143Z,1010.01
2018-12-11T00:24:15.129Z,1009.98
2018-12-11T00:25:15.141Z,1009.98
2018-12-11T00:26:15.105Z,1010.02
2018-12-11T00:27:15.106Z,1010.05
2018-12-11T00:28:15.083Z,1010.04
2018-12-11T00:29:15.071Z,1010.01
2018-12-11T00:30:15.076Z,1010.03
2018-12-11T00:31:15.047Z,1010.07
2018-12-11T00:32:15.039Z,1010.06
2018-12-11T00:33:15.037Z,1010.02
2018-12-11T00:34:15.018Z,1010.02
2018-12-11T00:35:15.026Z,1010.00
2018-12-11T00:36:14.989Z,1009.99
2018-12-11T00:37:14.982Z,1009.97
2018-12-11T00:38:14.967Z,1009.96
2018-12-11T00:39:14.955Z,1009.97
2018-12-11T00:40:14.967Z,1009.97
2018-12-11T00:41:14.941Z,1009.95
2018-12-11T00:42:14.927Z,1009.91
2018-12-11T00:43:14.913Z,1010.00
2018-12-11T00:44:14.896Z,1010.00
2018-12-11T00:45:14.937Z,1009.95
2018-12-11T00:46:14.876Z,1009.98
2018-12-11T00:47:14.864Z,1009.94
2018-12-11T00:48:14.853Z,1009.96
2018-12-11T00:49:14.840Z,1009.91
2018-12-11T00:50:14.830Z,1009.87
2018-12-11T00:51:14.850Z,1009.89
2018-12-11T00:52:14.809Z,1009.88
2018-12-11T00:53:14.798Z,1009.90
2018-12-11T00:54:14.782Z,1009.94
2018-12-11T00:55:14.769Z,1009.95
2018-12-11T00:56:14.782Z,1009.95
2018-12-11T00:57:14.752Z,1009.93
2018-12-11T00:58:14.737Z,1009.89
2018-12-11T00:59:14.725Z,1009.89
2018-12-11T01:00:14.736Z,1009.89
2018-12-11T01:01:14.724Z,1009.87
2018-12-11T01:02:14.692Z,1009.91
2018-12-11T01:03:14.679Z,1009.94
2018-12-11T01:04:14.673Z,1009.91
2018-12-11T01:05:14.655Z,1009.89
2018-12-11T01:06:14.683Z,1009.91
2018-12-11T01:07:14.635Z,1009.93
2018-12-11T01:08:14.630Z,1009.96
2018-12-11T01:09:14.612Z,1009.97
2018-12-11T01:10:14.598Z,1009.94
2018-12-11T01:11:14.591Z,1010.00
2018-12-11T01:12:14.592Z,1010.03
2018-12-11T01:13:14.573Z,1010.01
2018-12-11T01:14:14.556Z,1010.02
2018-12-11T01:15:14.542Z,1010.00
2018-12-11T01:16:14.528Z,1009.99
2018-12-11T01:17:14.536Z,1009.98
2018-12-11T01:18:14.506Z,1009.96
2018-12-11T01:19:14.495Z,1009.95
2018-12-11T01:20:14.482Z,1010.00
2018-12-11T01:21:14.469Z,1009.99
2018-12-11T01:22:14.478Z,1009.97
2018-12-11T01:23:14.447Z,1009.90
2018-12-11T01:24:14.436Z,1009.96
2018-12-11T01:25:14.425Z,1009.87
2018-12-11T01:26:14.413Z,1009.89
2018-12-11T01:27:14.422Z,1009.87
2018-12-11T01:28:14.393Z,1009.96
2018-12-11T01:29:14.398Z,1009.96
2018-12-11T01:30:14.366Z,1009.93
2018-12-11T01:31:14.359Z,1009.97
2018-12-11T01:32:14.377Z,1009.98
2018-12-11T01:33:14.333Z,1009.92
2018-12-11T01:34:14.323Z,1010.02
2018-12-11T01:35:14.337Z,1010.02
2018-12-11T01:36:14.302Z,1010.05
2018-12-11T01:37:14.286Z,1010.02
2018-12-11T01:38:14.294Z,1010.10
2018-12-11T01:39:14.265Z,1010.13
2018-12-11T01:40:14.258Z,1010.13
2018-12-11T01:41:14.240Z,1010.17
2018-12-11T01:42:14.249Z,1010.13
2018-12-11T01:43:14.218Z,1010.08
2018-12-11T01:44:14.209Z,1010.07
2018-12-11T01:45:14.195Z,1010.04
2018-12-11T01:46:14.190Z,1009.98
2018-12-11T01:47:14.611Z,1010.01
2018-12-11T01:48:14.161Z,1010.02
2018-12-11T01:49:14.151Z,1010.05
2018-12-11T01:50:14.137Z,1010.03
2018-12-11T01:51:14.126Z,1010.05
2018-12-11T01:52:14.116Z,1010.08
2018-12-11T01:53:14.125Z,1010.09
2018-12-11T01:54:14.094Z,1010.10
2018-12-11T01:55:14.078Z,1010.06
2018-12-11T01:56:14.069Z,1010.13
2018-12-11T01:57:14.057Z,1010.10
2018-12-11T01:58:14.067Z,1010.12
2018-12-11T01:59:14.039Z,1010.13
2018-12-11T02:00:14.025Z,1010.12
2018-12-11T02:01:14.012Z,1010.14
2018-12-11T02:02:14.005Z,1010.14
2018-12-11T02:03:14.014Z,1010.12
2018-12-11T02:04:13.976Z,1010.11
2018-12-11T02:05:13.978Z,1010.13
2018-12-11T02:06:13.954Z,1010.09
2018-12-11T02:07:13.946Z,1010.09
2018-12-11T02:08:13.953Z,1010.07
2018-12-11T02:09:13.918Z,1010.04
2018-12-11T02:10:13.913Z,1010.05
2018-12-11T02:11:13.895Z,1010.02
2018-12-11T02:12:13.884Z,1010.04
2018-12-11T02:13:13.913Z,1010.07
2018-12-11T02:14:13.863Z,1010.05
2018-12-11T02:15:13.851Z,1010.10
2018-12-11T02:16:13.840Z,1010.09
2018-12-11T02:17:13.827Z,1010.04
2018-12-11T02:18:13.818Z,1010.10
2018-12-11T02:19:13.821Z,1010.10
2018-12-11T02:20:13.792Z,1010.11
2018-12-11T02:21:13.780Z,1010.14
2018-12-11T02:22:13.769Z,1010.11
2018-12-11T02:23:13.758Z,1010.13
2018-12-11T02:24:13.766Z,1010.13
2018-12-11T02:25:13.734Z,1010.15
2018-12-11T02:26:13.727Z,1010.17
2018-12-11T02:27:13.713Z,1010.18
2018-12-11T02:28:13.726Z,1010.15
2018-12-11T02:29:13.690Z,1010.13
2018-12-11T02:30:13.680Z,1010.17
2018-12-11T02:31:13.667Z,1010.15
2018-12-11T02:32:13.655Z,1010.12
2018-12-11T02:33:13.665Z,1010.10
2018-12-11T02:34:13.651Z,1010.06
2018-12-11T02:35:13.619Z,1010.11
2018-12-11T02:36:13.611Z,1010.09
2018-12-11T02:37:13.598Z,1010.10
2018-12-11T02:38:13.606Z,1010.11
2018-12-11T02:39:13.579Z,1010.07
2018-12-11T02:40:13.564Z,1010.05
2018-12-11T02:41:13.555Z,1010.09
2018-12-11T02:42:13.539Z,1010.07
2018-12-11T02:43:13.529Z,1010.07
2018-12-11T02:44:13.540Z,1010.03
2018-12-11T02:45:13.509Z,1010.05
2018-12-11T02:46:13.501Z,1010.03
2018-12-11T02:47:13.484Z,1010.00
2018-12-11T02:48:13.476Z,1010.05
2018-12-11T02:49:13.491Z,1010.03
2018-12-11T02:50:13.450Z,1010.07
2018-12-11T02:51:13.437Z,1010.00
2018-12-11T02:52:13.426Z,1010.07
2018-12-11T02:53:13.411Z,1010.07
2018-12-11T02:54:13.421Z,1010.14
2018-12-11T02:55:13.391Z,1010.10
2018-12-11T02:56:13.430Z,1010.13
2018-12-11T02:57:13.368Z,1010.13
2018-12-11T02:58:13.355Z,1010.11
2018-12-11T02:59:13.386Z,1010.15
2018-12-11T03:00:13.334Z,1010.15
2018-12-11T03:01:13.321Z,1010.18
2018-12-11T03:02:13.312Z,1010.23
2018-12-11T03:03:13.299Z,1010.17
2018-12-11T03:04:13.292Z,1010.25
2018-12-11T03:05:13.295Z,1010.17
2018-12-11T03:06:13.266Z,1010.11
2018-12-11T03:07:13.251Z,1010.07
2018-12-11T03:08:13.243Z,1010.01
2018-12-11T03:09:13.231Z,1010.08
2018-12-11T03:10:13.239Z,1010.06
2018-12-11T03:11:13.207Z,1010.07
2018-12-11T03:12:13.195Z,1010.07
2018-12-11T03:13:13.185Z,1010.08
2018-12-11T03:14:13.173Z,1010.15
2018-12-11T03:15:13.182Z,1010.11
2018-12-11T03:16:13.153Z,1010.12
2018-12-11T03:17:13.150Z,1010.06
2018-12-11T03:18:13.127Z,1010.09
2018-12-11T03:19:13.116Z,1010.03
2018-12-11T03:20:13.127Z,1010.09
2018-12-11T03:21:13.097Z,1010.13
2018-12-11T03:22:13.078Z,1010.14
2018-12-11T03:23:13.069Z,1010.16
2018-12-11T03:24:13.058Z,1010.22
2018-12-11T03:25:13.044Z,1010.18
2018-12-11T03:26:13.057Z,1010.18
2018-12-11T03:27:13.023Z,1010.13
2018-12-11T03:28:13.008Z,1010.09
2018-12-11T03:29:12.999Z,1010.08
2018-12-11T03:30:12.987Z,1010.14
2018-12-11T03:31:13.030Z,1010.12
2018-12-11T03:32:12.966Z,1010.17
2018-12-11T03:33:12.957Z,1010.07
2018-12-11T03:34:12.942Z,1010.06
2018-12-11T03:35:12.931Z,1010.07
2018-12-11T03:36:12.939Z,1010.15
2018-12-11T03:37:12.909Z,1010.14
2018-12-11T03:38:12.902Z,1010.15
2018-12-11T03:39:12.883Z,1010.11
2018-12-11T03:41:16.257Z,1010.07
2018-12-11T03:42:16.226Z,1010.10
2018-12-11T03:43:16.216Z,1010.06
2018-12-11T03:44:16.201Z,1010.06
2018-12-11T03:45:16.194Z,1010.06
2018-12-11T03:46:16.178Z,1010.00
2018-12-11T03:47:16.199Z,1009.99
2018-12-11T03:48:16.156Z,1010.06
2018-12-11T03:49:16.149Z,1010.02
2018-12-11T03:50:16.135Z,1009.96
2018-12-11T03:51:16.123Z,1010.01
2018-12-11T03:52:21.345Z,1009.94
2018-12-11T03:53:17.097Z,1009.91
2018-12-11T03:54:16.090Z,1009.95
2018-12-11T03:55:16.079Z,1009.92
2018-12-11T03:56:16.065Z,1009.89
2018-12-11T03:57:16.072Z,1009.90
2018-12-11T03:58:16.044Z,1009.88
2018-12-11T03:59:16.031Z,1009.90
2018-12-11T04:00:16.020Z,1009.92
2018-12-11T04:01:16.009Z,1009.90
2018-12-11T04:02:16.017Z,1009.89
2018-12-11T04:03:15.991Z,1009.96
2018-12-11T04:04:15.975Z,1010.00
2018-12-11T04:05:15.961Z,1010.04
2018-12-11T04:06:15.950Z,1009.98
2018-12-11T04:07:15.960Z,1010.03
2018-12-11T04:08:15.927Z,1010.06
2018-12-11T04:09:15.917Z,1010.05
2018-12-11T04:10:15.908Z,1010.07
2018-12-11T04:11:15.897Z,1010.09
2018-12-11T04:12:15.922Z,1010.06
2018-12-11T04:13:15.875Z,1010.03
2018-12-11T04:14:15.859Z,1010.00
2018-12-11T04:15:15.848Z,1009.99
2018-12-11T04:16:15.835Z,1010.04
2018-12-11T04:17:15.831Z,1010.04
2018-12-11T04:18:15.833Z,1009.95
2018-12-11T04:19:15.803Z,1009.96
2018-12-11T04:20:15.788Z,1009.97
2018-12-11T04:21:15.779Z,1009.97
2018-12-11T04:22:15.767Z,1009.93
2018-12-11T04:23:15.777Z,1009.95
2018-12-11T04:24:15.748Z,1009.93
2018-12-11T04:25:15.731Z,1010.00
2018-12-11T04:26:15.721Z,1010.02
2018-12-11T04:27:15.710Z,1010.04
2018-12-11T04:28:15.699Z,1009.98
2018-12-11T04:29:15.704Z,1010.02
2018-12-11T04:30:15.677Z,1010.01
2018-12-11T04:31:15.664Z,1010.00
2018-12-11T04:32:15.653Z,1010.02
2018-12-11T04:33:15.643Z,1010.02
2018-12-11T04:34:15.651Z,1010.07
2018-12-11T04:35:15.618Z,1010.05
2018-12-11T04:36:15.605Z,1010.00
2018-12-11T04:37:15.594Z,1010.10
2018-12-11T04:38:15.581Z,1010.07
2018-12-11T04:39:15.598Z,1010.04
2018-12-11T04:40:15.559Z,1010.02
2018-12-11T04:41:15.548Z,1009.98
2018-12-11T04:42:15.537Z,1010.01
2018-12-11T04:43:15.526Z,1010.03
2018-12-11T04:44:15.532Z,1010.06
2018-12-11T04:45:15.504Z,1010.09
2018-12-11T04:46:15.490Z,1010.07
2018-12-11T04:47:15.480Z,1010.06
2018-12-11T04:48:15.470Z,1010.04
2018-12-11T04:49:15.480Z,1010.08
2018-12-11T04:50:15.447Z,1010.10
2018-12-11T04:51:15.436Z,1010.06
2018-12-11T04:52:15.427Z,1010.08
2018-12-11T04:53:15.411Z,1010.08
2018-12-11T04:54:15.407Z,1010.05
2018-12-11T04:55:15.418Z,1010.06
2018-12-11T04:56:15.378Z,1010.03
2018-12-11T04:57:15.367Z,1010.07
2018-12-11T04:58:15.354Z,1010.11
2018-12-11T04:59:15.345Z,1010.13
2018-12-11T05:00:15.351Z,1010.10
2018-12-11T05:01:15.320Z,1010.06
2018-12-11T05:02:15.311Z,1010.09
2018-12-11T05:03:15.300Z,1010.08
2018-12-11T05:04:15.286Z,1010.08
2018-12-11T05:05:15.299Z,1010.12
2018-12-11T05:06:15.264Z,1010.10
2018-12-11T05:07:15.253Z,1010.11
2018-12-11T05:08:15.245Z,1010.09
2018-12-11T05:09:15.230Z,1010.07
2018-12-11T05:10:15.218Z,1009.99
2018-12-11T05:11:15.224Z,1010.07
2018-12-11T05:12:15.194Z,1010.02
2018-12-11T05:13:15.185Z,1010.02
2018-12-11T05:14:15.171Z,1010.02
2018-12-11T05:15:15.159Z,1009.99
2018-12-11T05:16:15.170Z,1010.04
2018-12-11T05:17:15.139Z,1010.01
2018-12-11T05:18:15.126Z,1010.01
2018-12-11T05:19:15.115Z,1010.01
2018-12-11T05:20:15.105Z,1009.95
2018-12-11T05:21:15.113Z,1009.94
2018-12-11T05:22:15.082Z,1009.95
2018-12-11T05:23:15.070Z,1009.92
2018-12-11T05:24:15.057Z,1009.97
2018-12-11T05:25:15.047Z,1009.99
2018-12-11T05:26:15.055Z,1009.98
2018-12-11T05:27:15.024Z,1009.93
2018-12-11T05:28:15.011Z,1009.95
2018-12-11T05:29:15.001Z,1009.99
2018-12-11T05:30:14.989Z,1009.95
2018-12-11T05:31:14.997Z,1009.87
2018-12-11T05:32:14.968Z,1009.93
2018-12-11T05:33:14.957Z,1009.94
2018-12-11T05:34:14.943Z,1009.88
2018-12-11T05:35:14.933Z,1009.91
2018-12-11T05:36:14.944Z,1009.93
2018-12-11T05:37:14.910Z,1009.86
2018-12-11T05:38:14.901Z,1009.87
2018-12-11T05:39:14.887Z,1009.92
2018-12-11T05:40:14.875Z,1009.93
2018-12-11T05:41:14.864Z,1009.96
2018-12-11T05:42:14.870Z,1010.07
2018-12-11T05:43:14.843Z,1010.05
2018-12-11T05:44:14.831Z,1010.01
2018-12-11T05:45:14.818Z,1010.03
2018-12-11T05:46:14.808Z,1009.99
2018-12-11T05:47:14.814Z,1010.01
2018-12-11T05:48:14.783Z,1009.95
2018-12-11T05:49:14.772Z,1009.98
2018-12-11T05:50:14.760Z,1009.93
2018-12-11T05:51:14.748Z,1009.96
2018-12-11T05:52:14.755Z,1010.01
2018-12-11T05:53:14.731Z,1010.00
2018-12-11T05:54:14.714Z,1009.98
2018-12-11T05:55:14.701Z,1010.02
2018-12-11T05:56:14.692Z,1010.05
2018-12-11T05:57:14.701Z,1009.96
2018-12-11T05:58:14.666Z,1009.92
2018-12-11T05:59:14.658Z,1009.97
2018-12-11T06:00:14.644Z,1009.94
2018-12-11T06:01:14.633Z,1009.99
2018-12-11T06:02:14.623Z,1009.99
2018-12-11T06:03:14.631Z,1009.97
2018-12-11T06:04:14.597Z,1010.05
2018-12-11T06:05:14.589Z,1010.04
2018-12-11T06:06:14.575Z,1010.04
2018-12-11T06:07:14.562Z,1010.04
2018-12-11T06:08:14.574Z,1010.04
2018-12-11T06:09:14.540Z,1010.05
2018-12-11T06:10:14.527Z,1010.06
2018-12-11T06:11:14.517Z,1010.09
2018-12-11T06:12:14.506Z,1010.16
2018-12-11T06:13:14.513Z,1010.13
2018-12-11T06:14:14.484Z,1010.13
2018-12-11T06:15:14.470Z,1010.14
2018-12-11T06:16:14.459Z,1010.15
2018-12-11T06:17:14.449Z,1010.14
2018-12-11T06:18:14.463Z,1010.13
2018-12-11T06:19:14.426Z,1010.16
2018-12-11T06:20:14.420Z,1010.14
2018-12-11T06:21:14.401Z,1010.07
2018-12-11T06:22:14.391Z,1010.09
2018-12-11T06:23:14.381Z,1010.08
2018-12-11T06:24:14.395Z,1010.07
2018-12-11T06:25:14.362Z,1010.05
2018-12-11T06:26:14.345Z,1010.10
2018-12-11T06:27:14.335Z,1010.09
2018-12-11T06:28:14.324Z,1010.07
2018-12-11T06:29:14.332Z,1010.05
2018-12-11T06:30:14.299Z,1010.06
2018-12-11T06:31:14.288Z,1010.04
2018-12-11T06:32:14.282Z,1010.04
2018-12-11T06:33:14.266Z,1010.03
2018-12-11T06:34:14.274Z,1010.04
2018-12-11T06:35:14.241Z,1009.97
2018-12-11T06:36:14.231Z,1009.95
2018-12-11T06:37:14.219Z,1009.89
2018-12-11T06:38:14.207Z,1009.91
2018-12-11T06:39:14.219Z,1009.92
2018-12-11T06:40:14.184Z,1009.91
2018-12-11T06:41:14.172Z,1009.90
2018-12-11T06:42:14.163Z,1009.93
2018-12-11T06:43:14.148Z,1009.94
2018-12-11T06:44:14.139Z,1009.93
2018-12-11T06:45:14.148Z,1009.93
2018-12-11T06:46:14.114Z,1009.90
2018-12-11T06:47:14.104Z,1009.85
2018-12-11T06:48:14.092Z,1009.92
2018-12-11T06:50:44.919Z,1009.92
2018-12-11T06:51:44.906Z,1009.95
2018-12-11T06:52:44.882Z,1009.92
2018-12-11T06:53:44.869Z,1009.91
2018-12-11T06:54:44.859Z,1009.93
2018-12-11T06:55:44.867Z,1009.94
2018-12-11T06:56:44.839Z,1009.92
2018-12-11T06:57:44.826Z,1009.89
2018-12-11T06:58:44.815Z,1009.94
2018-12-11T06:59:44.803Z,1009.97
2018-12-11T07:00:44.810Z,1009.99
2018-12-11T07:01:44.779Z,1010.00
2018-12-11T07:02:44.767Z,1009.99
2018-12-11T07:03:44.758Z,1010.01
2018-12-11T07:04:44.745Z,1010.02
2018-12-11T07:05:44.819Z,1009.99
2018-12-11T07:06:44.728Z,1009.97
2018-12-11T07:07:44.721Z,1010.02
2018-12-11T07:08:44.701Z,1010.05
2018-12-11T07:09:44.690Z,1010.05
2018-12-11T07:10:44.694Z,1010.04
2018-12-11T07:11:44.669Z,1010.05
2018-12-11T07:12:44.655Z,1010.12
2018-12-11T07:13:44.642Z,1010.07
2018-12-11T07:14:44.635Z,1010.02
2018-12-11T07:15:44.643Z,1010.11
2018-12-11T07:16:44.608Z,1010.12
2018-12-11T07:17:44.599Z,1010.07
2018-12-11T07:18:44.586Z,1010.10
2018-12-11T07:19:44.574Z,1010.09
2018-12-11T07:20:44.562Z,1010.08
2018-12-11T07:21:44.571Z,1010.14
2018-12-11T07:22:44.542Z,1010.12
2018-12-11T07:23:44.527Z,1010.11
2018-12-11T07:24:44.516Z,1010.09
2018-12-11T07:25:44.505Z,1010.13
2018-12-11T07:26:44.514Z,1010.16
2018-12-11T07:27:44.483Z,1010.18
2018-12-11T07:28:44.470Z,1010.17
2018-12-11T07:29:44.464Z,1010.14
2018-12-11T07:30:44.450Z,1010.15
2018-12-11T07:31:44.480Z,1010.16
2018-12-11T07:32:44.431Z,1010.17
2018-12-11T07:33:50.661Z,1010.23
2018-12-11T07:34:45.402Z,1010.19
2018-12-11T07:35:44.392Z,1010.23
2018-12-11T07:36:44.380Z,1010.26
2018-12-11T07:37:44.387Z,1010.25
2018-12-11T07:38:44.356Z,1010.23
2018-12-11T07:39:44.348Z,1010.28
2018-12-11T07:40:44.334Z,1010.29
2018-12-11T07:41:44.324Z,1010.27
2018-12-11T07:42:44.331Z,1010.26
2018-12-11T07:43:44.303Z,1010.27
2018-12-11T07:44:44.289Z,1010.24
2018-12-11T07:45:44.277Z,1010.22
2018-12-11T07:46:44.267Z,1010.30
2018-12-11T07:47:44.273Z,1010.27
2018-12-11T07:48:44.243Z,1010.26
2018-12-11T07:49:44.230Z,1010.26
2018-12-11T07:50:44.222Z,1010.23
2018-12-11T07:51:44.210Z,1010.22
2018-12-11T07:52:44.227Z,1010.22
2018-12-11T07:53:44.185Z,1010.22
2018-12-11T07:54:44.173Z,1010.25
2018-12-11T07:55:44.163Z,1010.27
2018-12-11T07:56:44.148Z,1010.23
2018-12-11T07:57:44.138Z,1010.28
2018-12-11T07:58:44.145Z,1010.30
2018-12-11T07:59:44.115Z,1010.26
2018-12-11T08:00:44.105Z,1010.33
2018-12-11T08:01:44.093Z,1010.28
2018-12-11T08:02:44.083Z,1010.24
2018-12-11T08:03:44.088Z,1010.30
2018-12-11T08:04:44.058Z,1010.33
2018-12-11T08:05:44.047Z,1010.38
2018-12-11T08:06:44.034Z,1010.36
2018-12-11T08:07:44.024Z,1010.34
2018-12-11T08:08:44.029Z,1010.32
2018-12-11T08:09:43.999Z,1010.38
2018-12-11T08:10:43.992Z,1010.37
2018-12-11T08:11:43.978Z,1010.38
2018-12-11T08:12:43.968Z,1010.32
2018-12-11T08:13:43.995Z,1010.31
2018-12-11T08:14:43.944Z,1010.28
2018-12-11T08:15:43.933Z,1010.32
2018-12-11T08:16:43.920Z,1010.34
2018-12-11T08:17:43.908Z,1010.36
2018-12-11T08:18:43.896Z,1010.35
2018-12-11T08:19:43.903Z,1010.35
2018-12-11T08:20:43.873Z,1010.30
2018-12-11T08:21:43.863Z,1010.34
2018-12-11T08:22:43.850Z,1010.32
2018-12-11T08:23:43.841Z,1010.31
2018-12-11T08:24:43.848Z,1010.32
2018-12-11T08:25:43.815Z,1010.37
2018-12-11T08:26:43.805Z,1010.30
2018-12-11T08:27:43.793Z,1010.32
2018-12-11T08:28:43.781Z,1010.37
2018-12-11T08:29:43.768Z,1010.32
2018-12-11T08:30:43.778Z,1010.35
2018-12-11T08:31:43.747Z,1010.28
2018-12-11T08:32:43.734Z,1010.31
2018-12-11T08:33:43.727Z,1010.38
2018-12-11T08:34:43.712Z,1010.39
2018-12-11T08:35:43.719Z,1010.42
2018-12-11T08:36:43.691Z,1010.40
2018-12-11T08:37:43.677Z,1010.34
2018-12-11T08:38:43.666Z,1010.30
2018-12-11T08:39:43.653Z,1010.25
2018-12-11T08:40:43.665Z,1010.31
2018-12-11T08:41:43.634Z,1010.33
2018-12-11T08:42:43.623Z,1010.34
2018-12-11T08:43:43.609Z,1010.34
2018-12-11T08:44:43.597Z,1010.25
2018-12-11T08:45:43.604Z,1010.21
2018-12-11T08:46:43.576Z,1010.24
2018-12-11T08:47:43.567Z,1010.31
2018-12-11T08:48:43.553Z,1010.29
2018-12-11T08:49:43.542Z,1010.26
2018-12-11T08:50:43.549Z,1010.27
2018-12-11T08:51:43.517Z,1010.30
2018-12-11T08:52:43.507Z,1010.31
2018-12-11T08:53:43.497Z,1010.26
2018-12-11T08:54:43.483Z,1010.35
2018-12-11T08:55:43.494Z,1010.36
2018-12-11T08:56:43.463Z,1010.39
2018-12-11T08:57:43.451Z,1010.36
2018-12-11T08:58:43.440Z,1010.40
2018-12-11T08:59:43.428Z,1010.39
2018-12-11T09:00:43.440Z,1010.37
2018-12-11T09:01:43.405Z,1010.37
2018-12-11T09:02:43.393Z,1010.34
2018-12-11T09:03:43.385Z,1010.38
2018-12-11T09:04:43.370Z,1010.38
2018-12-11T09:05:43.362Z,1010.41
2018-12-11T09:06:43.367Z,1010.37
2018-12-11T09:07:43.339Z,1010.36
2018-12-11T09:08:43.328Z,1010.39
2018-12-11T09:09:43.319Z,1010.36
2018-12-11T09:10:43.302Z,1010.35
2018-12-11T09:11:43.311Z,1010.42
2018-12-11T09:12:43.283Z,1010.45
2018-12-11T09:13:43.333Z,1010.38
2018-12-11T09:14:43.263Z,1010.36
2018-12-11T09:15:43.249Z,1010.40
2018-12-11T09:16:43.257Z,1010.45
2018-12-11T09:17:43.223Z,1010.41
2018-12-11T09:18:43.215Z,1010.42
2018-12-11T09:19:43.201Z,1010.41
2018-12-11T09:20:43.191Z,1010.48
2018-12-11T09:21:43.221Z,1010.48
2018-12-11T09:22:43.168Z,1010.48
2018-12-11T09:23:43.158Z,1010.48
2018-12-11T09:24:43.146Z,1010.43
2018-12-11T09:25:43.136Z,1010.43
2018-12-11T09:26:43.121Z,1010.39
2018-12-11T09:27:43.130Z,1010.46
2018-12-11T09:28:43.100Z,1010.43
2018-12-11T09:29:43.090Z,1010.37
2018-12-11T09:30:43.078Z,1010.41
2018-12-11T09:31:43.066Z,1010.45
2018-12-11T09:32:43.074Z,1010.46
2018-12-11T09:33:43.056Z,1010.56
2018-12-11T09:34:43.032Z,1010.60
2018-12-11T09:35:43.022Z,1010.60
2018-12-11T09:36:43.011Z,1010.64
2018-12-11T09:37:43.024Z,1010.59
2018-12-11T09:38:42.987Z,1010.60
2018-12-11T09:39:42.976Z,1010.60
2018-12-11T09:40:42.964Z,1010.55
2018-12-11T09:41:42.950Z,1010.53
2018-12-11T09:42:42.946Z,1010.57
2018-12-11T09:43:42.947Z,1010.58
2018-12-11T09:44:42.920Z,1010.56
2018-12-11T09:45:42.904Z,1010.61
2018-12-11T09:46:42.895Z,1010.69
2018-12-11T09:47:42.881Z,1010.66
2018-12-11T09:48:42.886Z,1010.64
2018-12-11T09:49:42.861Z,1010.62
2018-12-11T09:50:42.845Z,1010.64
2018-12-11T09:51:42.833Z,1010.65
2018-12-11T09:52:42.820Z,1010.66
2018-12-11T09:53:42.833Z,1010.64
2018-12-11T09:54:42.798Z,1010.62
2018-12-11T09:55:42.787Z,1010.66
2018-12-11T09:56:42.776Z,1010.61
2018-12-11T09:57:42.764Z,1010.61
2018-12-11T09:58:42.755Z,1010.64
2018-12-11T09:59:42.760Z,1010.61
2018-12-11T10:00:42.799Z,1010.63
2018-12-11T10:01:42.719Z,1010.56
2018-12-11T10:02:42.705Z,1010.56
2018-12-11T10:03:42.693Z,1010.53
2018-12-11T10:04:42.699Z,1010.55
2018-12-11T10:05:42.669Z,1010.61
2018-12-11T10:06:42.660Z,1010.59
2018-12-11T10:07:42.646Z,1010.61
2018-12-11T10:08:42.635Z,1010.57
2018-12-11T10:09:42.655Z,1010.57
2018-12-11T10:10:42.613Z,1010.64
2018-12-11T10:11:42.601Z,1010.61
2018-12-11T10:12:42.589Z,1010.61
2018-12-11T10:13:42.579Z,1010.67
2018-12-11T10:14:42.566Z,1010.67
2018-12-11T10:15:42.573Z,1010.62
2018-12-11T10:16:42.546Z,1010.65
2018-12-11T10:17:42.530Z,1010.62
2018-12-11T10:18:42.521Z,1010.61
2018-12-11T10:19:42.509Z,1010.66
2018-12-11T10:20:42.526Z,1010.65
2018-12-11T10:21:42.484Z,1010.72
2018-12-11T10:22:42.472Z,1010.70
2018-12-11T10:23:42.461Z,1010.74
2018-12-11T10:24:42.452Z,1010.79
2018-12-11T10:25:42.460Z,1010.72
2018-12-11T10:26:42.429Z,1010.71
2018-12-11T10:27:42.420Z,1010.68
2018-12-11T10:28:42.405Z,1010.68
2018-12-11T10:29:42.392Z,1010.67
2018-12-11T10:30:42.422Z,1010.72
2018-12-11T10:31:42.371Z,1010.72
2018-12-11T10:32:42.358Z,1010.67
2018-12-11T10:33:42.353Z,1010.68
2018-12-11T10:34:42.356Z,1010.65
2018-12-11T10:35:42.325Z,1010.67
2018-12-11T10:36:42.335Z,1010.67
2018-12-11T10:37:42.304Z,1010.65
2018-12-11T10:38:42.295Z,1010.59
2018-12-11T10:39:42.280Z,1010.64
2018-12-11T10:40:42.267Z,1010.65
2018-12-11T10:41:42.273Z,1010.65
2018-12-11T10:42:42.246Z,1010.68
2018-12-11T10:43:42.234Z,1010.67
2018-12-11T10:44:42.222Z,1010.62
2018-12-11T10:45:42.212Z,1010.66
2018-12-11T10:46:42.222Z,1010.62
2018-12-11T10:47:42.189Z,1010.64
2018-12-11T10:48:42.178Z,1010.65
2018-12-11T10:49:42.165Z,1010.62
2018-12-11T10:50:42.153Z,1010.67
2018-12-11T10:51:42.142Z,1010.65
2018-12-11T10:52:42.149Z,1010.69
2018-12-11T10:53:42.119Z,1010.70
2018-12-11T10:54:42.107Z,1010.69
2018-12-11T10:55:42.098Z,1010.72
2018-12-11T10:56:42.083Z,1010.70
2018-12-11T10:57:42.090Z,1010.69
2018-12-11T10:58:42.061Z,1010.68
2018-12-11T10:59:42.049Z,1010.74
2018-12-11T11:00:42.035Z,1010.70
2018-12-11T11:01:42.024Z,1010.72
2018-12-11T11:02:42.035Z,1010.78
2018-12-11T11:03:42.005Z,1010.75
2018-12-11T11:04:41.989Z,1010.76
2018-12-11T11:05:41.977Z,1010.74
2018-12-11T11:06:41.967Z,1010.76
2018-12-11T11:07:41.980Z,1010.76
2018-12-11T11:08:41.942Z,1010.69
2018-12-11T11:09:41.931Z,1010.67
2018-12-11T11:10:41.921Z,1010.69
2018-12-11T11:11:42.099Z,1010.69
2018-12-11T11:12:41.897Z,1010.67
2018-12-11T11:13:41.913Z,1010.67
2018-12-11T11:14:41.874Z,1010.70
2018-12-11T11:15:41.864Z,1010.58
2018-12-11T11:16:41.853Z,1010.61
2018-12-11T11:17:41.841Z,1010.60
2018-12-11T11:18:41.854Z,1010.61
2018-12-11T11:19:41.816Z,1010.61
2018-12-11T11:20:41.805Z,1010.65
2018-12-11T11:21:41.794Z,1010.64
2018-12-11T11:22:41.781Z,1010.64
2018-12-11T11:23:41.769Z,1010.58
2018-12-11T11:24:41.776Z,1010.67
2018-12-11T11:25:41.747Z,1010.61
2018-12-11T11:26:41.738Z,1010.57
2018-12-11T11:27:41.725Z,1010.58
2018-12-11T11:28:41.715Z,1010.59
2018-12-11T11:29:41.723Z,1010.46
2018-12-11T11:30:41.689Z,1010.48
2018-12-11T11:31:41.678Z,1010.53
2018-12-11T11:32:41.668Z,1010.53
2018-12-11T11:33:41.656Z,1010.46
2018-12-11T11:34:41.670Z,1010.45
2018-12-11T11:35:41.633Z,1010.45
2018-12-11T11:36:41.622Z,1010.41
2018-12-11T11:37:41.610Z,1010.38
2018-12-11T11:38:41.599Z,1010.38
2018-12-11T11:39:41.609Z,1010.40
2018-12-11T11:40:41.575Z,1010.35
2018-12-11T11:41:41.563Z,1010.31
2018-12-11T11:42:41.551Z,1010.39
2018-12-11T11:43:41.542Z,1010.28
2018-12-11T11:44:41.570Z,1010.35
2018-12-11T11:45:41.518Z,1010.38
2018-12-11T11:46:41.505Z,1010.39
2018-12-11T11:47:41.493Z,1010.34
2018-12-11T11:48:41.482Z,1010.40
2018-12-11T11:49:41.470Z,1010.43
2018-12-11T11:50:41.478Z,1010.40
2018-12-11T11:51:41.447Z,1010.38
2018-12-11T11:52:41.437Z,1010.40
2018-12-11T11:53:41.425Z,1010.43
2018-12-11T11:54:41.415Z,1010.36
2018-12-11T11:55:41.481Z,1010.35
2018-12-11T11:56:41.391Z,1010.42
2018-12-11T11:57:41.378Z,1010.44
2018-12-11T11:58:41.367Z,1010.35
2018-12-11T11:59:41.356Z,1010.36
2018-12-11T12:00:41.369Z,1010.33
2018-12-11T12:01:41.334Z,1010.31
2018-12-11T12:02:41.322Z,1010.33
2018-12-11T12:03:41.310Z,1010.37
2018-12-11T12:04:41.298Z,1010.36
2018-12-11T12:05:41.288Z,1010.37
2018-12-11T12:06:41.307Z,1010.40
2018-12-11T12:07:41.268Z,1010.31